sensor_id;sensor_type;location;lat;lon;timestamp;pressure;altitude;pressure_sealevel;temperature;humidity
74578;BME280;63173;49.086;33.418;2022-11-30T04:17:30;101961.69;;;-2.93;78.87
74578;BME280;63173;49.086;33.418;2022-11-30T04:19:55;101959.69;;;-2.99;78.70
74578;BME280;63173;49.086;33.418;2022-11-30T04:22:21;101947.03;;;-2.97;77.66
74578;BME280;63173;49.086;33.418;2022-11-30T04:24:46;101957.03;;;-2.91;77.59
74578;BME280;63173;49.086;33.418;2022-11-30T04:27:11;101964.22;;;-2.92;77.59
74578;BME280;63173;49.086;33.418;2022-11-30T04:29:37;101955.06;;;-2.89;77.75
74578;BME280;63173;49.086;33.418;2022-11-30T04:32:02;101944.53;;;-2.99;78.06
74578;BME280;63173;49.086;33.418;2022-11-30T04:34:28;101970.34;;;-2.91;77.68
74578;BME280;63173;49.086;33.418;2022-11-30T04:36:55;101965.53;;;-2.88;77.99
74578;BME280;63173;49.086;33.418;2022-11-30T04:39:21;101950.22;;;-2.94;77.33
74578;BME280;63173;49.086;33.418;2022-11-30T04:41:47;101969.19;;;-2.89;77.27
74578;BME280;63173;49.086;33.418;2022-11-30T04:44:12;101972.19;;;-2.83;77.63
74578;BME280;63173;49.086;33.418;2022-11-30T04:46:37;101962.91;;;-2.79;77.26
74578;BME280;63173;49.086;33.418;2022-11-30T04:49:03;101973.00;;;-2.91;77.69
74578;BME280;63173;49.086;33.418;2022-11-30T04:51:28;101960.59;;;-2.82;77.64
74578;BME280;63173;49.086;33.418;2022-11-30T04:53:54;101969.19;;;-2.89;77.44
74578;BME280;63173;49.086;33.418;2022-11-30T04:56:20;101960.53;;;-2.91;77.49
74578;BME280;63173;49.086;33.418;2022-11-30T04:58:46;101961.84;;;-2.95;77.34
74578;BME280;63173;49.086;33.418;2022-11-30T05:01:11;101956.34;;;-3.01;77.37
74578;BME280;63173;49.086;33.418;2022-11-30T05:03:37;101955.50;;;-3.02;77.17
74578;BME280;63173;49.086;33.418;2022-11-30T05:06:03;101951.88;;;-2.93;77.29
74578;BME280;63173;49.086;33.418;2022-11-30T05:08:28;101951.03;;;-2.93;77.77
74578;BME280;63173;49.086;33.418;2022-11-30T05:10:54;101953.91;;;-2.87;77.07
74578;BME280;63173;49.086;33.418;2022-11-30T05:13:21;101960.31;;;-2.97;78.31
74578;BME280;63173;49.086;33.418;2022-11-30T05:15:47;101941.88;;;-2.99;77.95
74578;BME280;63173;49.086;33.418;2022-11-30T05:18:12;101952.22;;;-2.88;77.87
74578;BME280;63173;49.086;33.418;2022-11-30T05:20:40;101951.84;;;-3.01;77.72
74578;BME280;63173;49.086;33.418;2022-11-30T05:23:05;101950.19;;;-3.02;78.21
74578;BME280;63173;49.086;33.418;2022-11-30T05:25:31;101949.06;;;-2.99;77.74
74578;BME280;63173;49.086;33.418;2022-11-30T05:27:56;101940.03;;;-3.06;77.98
74578;BME280;63173;49.086;33.418;2022-11-30T05:30:22;101970.72;;;-2.86;77.79
74578;BME280;63173;49.086;33.418;2022-11-30T05:32:47;101969.63;;;-3.01;78.30
74578;BME280;63173;49.086;33.418;2022-11-30T05:35:12;101976.50;;;-2.91;77.79
74578;BME280;63173;49.086;33.418;2022-11-30T05:37:38;101977.50;;;-2.92;78.01
74578;BME280;63173;49.086;33.418;2022-11-30T05:40:04;101977.16;;;-2.89;78.19
74578;BME280;63173;49.086;33.418;2022-11-30T05:42:29;101990.81;;;-2.83;78.17
74578;BME280;63173;49.086;33.418;2022-11-30T05:44:55;101977.63;;;-2.93;78.13
74578;BME280;63173;49.086;33.418;2022-11-30T05:47:21;101987.06;;;-2.73;78.03
74578;BME280;63173;49.086;33.418;2022-11-30T05:49:46;101987.06;;;-2.73;76.66
74578;BME280;63173;49.086;33.418;2022-11-30T05:52:11;101972.88;;;-2.81;77.39
74578;BME280;63173;49.086;33.418;2022-11-30T05:54:37;101967.38;;;-2.80;76.66
74578;BME280;63173;49.086;33.418;2022-11-30T05:57:02;101966.28;;;-2.69;76.75
74578;BME280;63173;49.086;33.418;2022-11-30T05:59:29;101972.25;;;-2.75;77.10
74578;BME280;63173;49.086;33.418;2022-11-30T06:01:55;101976.16;;;-2.88;77.08
74578;BME280;63173;49.086;33.418;2022-11-30T06:04:20;101979.50;;;-2.86;76.95
74578;BME280;63173;49.086;33.418;2022-11-30T06:06:46;101969.75;;;-2.77;77.17
74578;BME280;63173;49.086;33.418;2022-11-30T10:22:52;101920.13;;;0.44;58.88
74578;BME280;63173;49.086;33.418;2022-11-30T10:25:28;101910.47;;;1.02;58.09
74578;BME280;63173;49.086;33.418;2022-11-30T10:28:22;101905.69;;;0.82;57.89
74578;BME280;63173;49.086;33.418;2022-11-30T10:30:55;101909.81;;;0.70;58.68
74578;BME280;63173;49.086;33.418;2022-11-30T10:33:28;101910.78;;;0.40;59.15
74578;BME280;63173;49.086;33.418;2022-11-30T10:36:09;101914.69;;;0.52;59.67
74578;BME280;63173;49.086;33.418;2022-11-30T10:38:42;101911.81;;;0.39;59.63
74578;BME280;63173;49.086;33.418;2022-11-30T10:41:25;101914.16;;;0.86;58.37
74578;BME280;63173;49.086;33.418;2022-11-30T10:44:03;101913.53;;;0.69;58.86
74578;BME280;63173;49.086;33.418;2022-11-30T10:46:36;101914.13;;;0.42;59.74
74578;BME280;63173;49.086;33.418;2022-11-30T10:49:06;101903.34;;;0.50;59.48
74578;BME280;63173;49.086;33.418;2022-11-30T10:51:35;101895.53;;;0.78;59.25
74578;BME280;63173;49.086;33.418;2022-11-30T10:54:10;101891.22;;;0.62;58.94
74578;BME280;63173;49.086;33.418;2022-11-30T10:56:37;101900.31;;;0.53;59.99
74578;BME280;63173;49.086;33.418;2022-11-30T10:59:08;101899.50;;;0.67;58.63
74578;BME280;63173;49.086;33.418;2022-11-30T11:01:40;101904.38;;;0.64;59.32
74578;BME280;63173;49.086;33.418;2022-11-30T11:06:46;101905.84;;;0.66;58.69
74578;BME280;63173;49.086;33.418;2022-11-30T11:09:49;101895.81;;;0.68;59.21
74578;BME280;63173;49.086;33.418;2022-11-30T11:12:18;101906.22;;;0.78;59.39
74578;BME280;63173;49.086;33.418;2022-11-30T11:14:46;101901.44;;;0.73;58.62
74578;BME280;63173;49.086;33.418;2022-11-30T11:19:45;101895.78;;;1.12;58.83
74578;BME280;63173;49.086;33.418;2022-11-30T11:22:22;101903.94;;;0.75;59.27
74578;BME280;63173;49.086;33.418;2022-11-30T11:24:49;101898.66;;;0.81;59.56
74578;BME280;63173;49.086;33.418;2022-11-30T11:27:33;101897.28;;;0.85;58.93
74578;BME280;63173;49.086;33.418;2022-11-30T11:36:11;101901.63;;;0.86;59.20
74578;BME280;63173;49.086;33.418;2022-11-30T11:38:41;101897.56;;;1.05;58.97
74578;BME280;63173;49.086;33.418;2022-11-30T11:41:33;101904.28;;;1.01;59.03
74578;BME280;63173;49.086;33.418;2022-11-30T11:46:33;101899.28;;;1.27;58.41
74578;BME280;63173;49.086;33.418;2022-11-30T11:51:32;101890.06;;;1.01;59.42
74578;BME280;63173;49.086;33.418;2022-11-30T11:54:22;101893.69;;;0.93;59.15
74578;BME280;63173;49.086;33.418;2022-11-30T11:56:47;101899.41;;;1.05;58.94
74578;BME280;63173;49.086;33.418;2022-11-30T16:46:24;101951.34;;;0.44;61.44
74578;BME280;63173;49.086;33.418;2022-11-30T16:48:54;101949.25;;;0.54;60.93
74578;BME280;63173;49.086;33.418;2022-11-30T16:51:24;101951.84;;;0.47;61.47
74578;BME280;63173;49.086;33.418;2022-11-30T16:53:50;101948.81;;;0.50;61.15
74578;BME280;63173;49.086;33.418;2022-11-30T16:56:17;101953.94;;;0.37;61.55
74578;BME280;63173;49.086;33.418;2022-11-30T16:58:43;101944.72;;;0.40;62.09
74578;BME280;63173;49.086;33.418;2022-11-30T17:01:34;101946.25;;;0.34;61.95
74578;BME280;63173;49.086;33.418;2022-11-30T17:04:08;101943.06;;;0.39;62.15
74578;BME280;63173;49.086;33.418;2022-11-30T17:06:36;101950.81;;;0.48;61.35
74578;BME280;63173;49.086;33.418;2022-11-30T17:09:03;101936.59;;;0.33;61.48
74578;BME280;63173;49.086;33.418;2022-11-30T17:11:35;101941.16;;;0.47;62.19
74578;BME280;63173;49.086;33.418;2022-11-30T17:14:02;101929.22;;;0.35;61.51
74578;BME280;63173;49.086;33.418;2022-11-30T17:16:28;101943.03;;;0.24;62.55
74578;BME280;63173;49.086;33.418;2022-11-30T17:18:54;101927.28;;;0.29;62.18
74578;BME280;63173;49.086;33.418;2022-11-30T17:21:27;101940.28;;;0.32;62.59
74578;BME280;63173;49.086;33.418;2022-11-30T17:23:53;101939.59;;;0.53;61.66
74578;BME280;63173;49.086;33.418;2022-11-30T17:26:19;101935.16;;;0.45;62.15
74578;BME280;63173;49.086;33.418;2022-11-30T17:28:45;101922.16;;;0.20;62.78
74578;BME280;63173;49.086;33.418;2022-11-30T17:31:12;101942.72;;;0.19;63.57
74578;BME280;63173;49.086;33.418;2022-11-30T17:33:38;101929.91;;;0.15;62.98
74578;BME280;63173;49.086;33.418;2022-11-30T17:36:06;101935.00;;;0.24;63.26
74578;BME280;63173;49.086;33.418;2022-11-30T17:38:33;101939.81;;;0.06;63.92
74578;BME280;63173;49.086;33.418;2022-11-30T17:41:09;101934.88;;;-0.05;63.67
74578;BME280;63173;49.086;33.418;2022-11-30T17:43:37;101945.47;;;-0.12;64.06
74578;BME280;63173;49.086;33.418;2022-11-30T17:46:07;101942.66;;;-0.18;65.15
74578;BME280;63173;49.086;33.418;2022-11-30T17:48:34;101940.59;;;0.15;63.38
74578;BME280;63173;49.086;33.418;2022-11-30T17:51:00;101949.13;;;0.10;64.49
74578;BME280;63173;49.086;33.418;2022-11-30T17:53:26;101952.22;;;-0.01;63.86
74578;BME280;63173;49.086;33.418;2022-11-30T17:56:12;101951.38;;;-0.02;63.51
74578;BME280;63173;49.086;33.418;2022-11-30T17:58:40;101942.78;;;-0.12;63.99
74578;BME280;63173;49.086;33.418;2022-11-30T18:01:10;101947.81;;;-0.17;64.97
74578;BME280;63173;49.086;33.418;2022-11-30T18:03:38;101950.38;;;-0.23;64.38
74578;BME280;63173;49.086;33.418;2022-11-30T18:06:05;101942.00;;;-0.20;64.09
74578;BME280;63173;49.086;33.418;2022-11-30T22:19:14;102087.34;;;-0.69;65.15
74578;BME280;63173;49.086;33.418;2022-11-30T22:21:40;102083.84;;;-0.70;65.22
74578;BME280;63173;49.086;33.418;2022-11-30T22:24:08;102076.16;;;-0.57;65.25
74578;BME280;63173;49.086;33.418;2022-11-30T22:26:39;102081.81;;;-0.52;64.21
74578;BME280;63173;49.086;33.418;2022-11-30T22:29:14;102078.59;;;-0.39;63.93
74578;BME280;63173;49.086;33.418;2022-11-30T22:31:42;102073.44;;;-0.49;63.92
74578;BME280;63173;49.086;33.418;2022-11-30T22:34:08;102073.50;;;-0.65;64.90
74578;BME280;63173;49.086;33.418;2022-11-30T22:36:38;102071.63;;;-0.48;65.31
74578;BME280;63173;49.086;33.418;2022-11-30T22:41:36;102074.41;;;-0.34;63.80
74578;BME280;63173;49.086;33.418;2022-11-30T22:44:01;102074.94;;;-0.38;64.00
74578;BME280;63173;49.086;33.418;2022-11-30T22:46:29;102076.94;;;-0.40;64.04
74578;BME280;63173;49.086;33.418;2022-11-30T22:49:00;102075.91;;;-0.39;63.75
74578;BME280;63173;49.086;33.418;2022-11-30T22:51:27;102068.28;;;-0.42;63.86
74578;BME280;63173;49.086;33.418;2022-11-30T22:53:53;102078.47;;;-0.46;64.83
74578;BME280;63173;49.086;33.418;2022-11-30T22:56:38;102076.41;;;-0.36;64.74
74578;BME280;63173;49.086;33.418;2022-11-30T22:59:09;102070.28;;;-0.44;63.66
74578;BME280;63173;49.086;33.418;2022-11-30T23:01:43;102073.59;;;-0.34;64.18
74578;BME280;63173;49.086;33.418;2022-11-30T23:04:11;102072.25;;;-0.38;63.54
74578;BME280;63173;49.086;33.418;2022-11-30T23:06:38;102079.06;;;-0.36;63.44
74578;BME280;63173;49.086;33.418;2022-11-30T23:09:06;102069.75;;;-0.40;64.08
74578;BME280;63173;49.086;33.418;2022-11-30T23:11:33;102065.78;;;-0.44;64.23
74578;BME280;63173;49.086;33.418;2022-11-30T23:13:58;102064.19;;;-0.30;63.34
74578;BME280;63173;49.086;33.418;2022-11-30T23:16:24;102072.72;;;-0.27;63.10
74578;BME280;63173;49.086;33.418;2022-11-30T23:18:52;102072.88;;;-0.28;62.71
74578;BME280;63173;49.086;33.418;2022-11-30T23:21:24;102070.25;;;-0.36;64.02
74578;BME280;63173;49.086;33.418;2022-11-30T23:23:51;102066.75;;;-0.45;63.29
74578;BME280;63173;49.086;33.418;2022-11-30T23:26:22;102078.94;;;-0.34;62.93
74578;BME280;63173;49.086;33.418;2022-11-30T23:28:49;102065.59;;;-0.34;62.51
74578;BME280;63173;49.086;33.418;2022-11-30T23:31:20;102076.19;;;-0.26;63.20
74578;BME280;63173;49.086;33.418;2022-11-30T23:33:47;102076.06;;;-0.33;62.58
74578;BME280;63173;49.086;33.418;2022-11-30T23:36:12;102073.91;;;-0.37;63.11
74578;BME280;63173;49.086;33.418;2022-11-30T23:38:39;102064.94;;;-0.44;62.93
74578;BME280;63173;49.086;33.418;2022-11-30T23:41:06;102072.25;;;-0.38;62.96
74578;BME280;63173;49.086;33.418;2022-11-30T23:43:33;102077.72;;;-0.32;63.13
74578;BME280;63173;49.086;33.418;2022-11-30T23:45:59;102080.22;;;-0.30;61.99
74578;BME280;63173;49.086;33.418;2022-11-30T23:48:25;102080.94;;;-0.36;62.81
74578;BME280;63173;49.086;33.418;2022-11-30T23:50:51;102081.25;;;-0.31;61.71
74578;BME280;63173;49.086;33.418;2022-11-30T23:53:17;102071.25;;;-0.37;62.36
74578;BME280;63173;49.086;33.418;2022-11-30T23:55:42;102077.94;;;-0.41;62.43
74578;BME280;63173;49.086;33.418;2022-11-30T23:58:08;102073.59;;;-0.34;62.60
